createdAt,value
2024-04-14T00:02:23.918Z,66.72
2024-04-14T00:04:54.294Z,65.22
2024-04-14T00:07:22.699Z,63.81
2024-04-14T00:09:49.330Z,62.38
2024-04-14T00:12:15.901Z,61.31
2024-04-14T00:14:42.452Z,60.63
2024-04-14T00:17:09.005Z,60.20
2024-04-14T00:19:35.756Z,59.77
2024-04-14T00:22:02.767Z,59.27
2024-04-14T00:24:29.824Z,59.43
2024-04-14T00:26:56.410Z,59.46
2024-04-14T00:29:23.004Z,59.68
2024-04-14T00:31:49.565Z,59.48
2024-04-14T00:34:16.201Z,60.22
2024-04-14T00:36:44.019Z,60.40
2024-04-14T00:39:13.283Z,60.71
2024-04-14T00:41:39.849Z,61.11
2024-04-14T00:44:06.386Z,60.85
2024-04-14T00:46:32.953Z,61.14
2024-04-14T00:48:59.949Z,61.01
2024-04-14T00:51:26.657Z,61.39
2024-04-14T00:53:53.841Z,61.56
2024-04-14T00:56:20.932Z,61.95
2024-04-14T00:58:48.122Z,61.56
2024-04-14T01:01:15.449Z,61.53
2024-04-14T01:03:42.289Z,61.98
2024-04-14T01:06:08.911Z,61.99
2024-04-14T01:08:35.566Z,61.80
2024-04-14T01:11:02.184Z,60.91
2024-04-14T01:13:28.738Z,61.91
2024-04-14T01:15:55.375Z,61.79
2024-04-14T01:18:22.006Z,61.98
2024-04-14T01:20:48.709Z,61.88
2024-04-14T01:23:15.254Z,62.15
2024-04-14T01:25:41.795Z,62.48
2024-04-14T01:28:08.345Z,62.58
2024-04-14T01:30:34.918Z,63.07
2024-04-14T01:33:01.612Z,63.41
2024-04-14T01:35:28.221Z,63.58
2024-04-14T01:38:01.784Z,63.39
2024-04-14T01:40:35.099Z,63.66
2024-04-14T01:43:01.841Z,64.26
2024-04-14T01:45:28.438Z,64.53
2024-04-14T01:47:56.141Z,64.78
2024-04-14T01:50:22.817Z,64.75
2024-04-14T01:52:49.360Z,65.37
2024-04-14T01:55:15.998Z,66.26
2024-04-14T01:57:42.562Z,66.40
2024-04-14T02:00:09.448Z,66.69
2024-04-14T02:02:36.063Z,66.89
2024-04-14T02:05:02.626Z,67.37
2024-04-14T02:07:29.180Z,67.05
2024-04-14T02:09:55.784Z,66.91
2024-04-14T02:12:22.468Z,67.11
2024-04-14T02:14:49.015Z,67.42
2024-04-14T02:17:15.595Z,67.39
2024-04-14T02:19:42.137Z,67.41
2024-04-14T02:22:08.983Z,67.28
2024-04-14T02:24:37.385Z,66.92
2024-04-14T02:27:04.171Z,66.66
2024-04-14T02:29:30.702Z,66.88
2024-04-14T02:31:57.846Z,67.41
2024-04-14T02:34:24.511Z,67.24
2024-04-14T02:36:51.135Z,67.38
2024-04-14T02:39:17.684Z,67.53
2024-04-14T02:41:44.269Z,67.49
2024-04-14T02:44:11.261Z,67.80
2024-04-14T02:46:37.818Z,68.15
2024-04-14T02:49:04.478Z,68.92
2024-04-14T02:51:31.103Z,69.22
2024-04-14T02:53:57.655Z,69.80
2024-04-14T02:56:24.216Z,70.38
2024-04-14T02:58:50.794Z,70.85
2024-04-14T03:01:18.516Z,70.88
2024-04-14T03:03:45.664Z,71.16
2024-04-14T03:06:12.349Z,71.24
2024-04-14T03:08:38.905Z,71.82
2024-04-14T03:11:06.523Z,72.34
2024-04-14T03:13:33.137Z,72.75
2024-04-14T03:16:05.384Z,73.36
2024-04-14T03:18:32.048Z,73.60
2024-04-14T03:21:00.072Z,74.06
2024-04-14T03:23:27.420Z,74.84
2024-04-14T03:25:54.305Z,75.15
2024-04-14T03:28:24.965Z,74.98
2024-04-14T03:30:52.204Z,75.04
2024-04-14T03:33:18.886Z,76.16
2024-04-14T03:35:46.069Z,76.50
2024-04-14T03:38:12.619Z,77.27
2024-04-14T03:40:39.200Z,76.91
2024-04-14T03:43:05.742Z,77.65
2024-04-14T03:45:33.783Z,78.17
2024-04-14T03:48:00.553Z,79.18
2024-04-14T03:50:27.176Z,78.78
2024-04-14T03:52:53.731Z,79.35
2024-04-14T03:55:20.704Z,79.66
2024-04-14T03:57:47.305Z,80.29
2024-04-14T04:00:14.064Z,80.73
2024-04-14T04:02:40.714Z,80.45
2024-04-14T04:05:09.150Z,81.11
2024-04-14T04:07:36.302Z,81.26
2024-04-14T04:10:03.360Z,80.77
2024-04-14T04:12:29.957Z,80.87
2024-04-14T04:14:56.513Z,81.55
2024-04-14T04:17:23.063Z,82.23
2024-04-14T04:19:49.685Z,82.67
2024-04-14T04:22:16.237Z,83.48
2024-04-14T04:24:42.900Z,83.48
2024-04-14T04:27:09.543Z,84.40
2024-04-14T04:29:36.131Z,84.54
2024-04-14T04:32:02.743Z,86.04
2024-04-14T04:34:29.366Z,85.77
2024-04-14T04:36:56.128Z,86.07
2024-04-14T04:39:22.807Z,86.52
2024-04-14T04:41:49.448Z,86.45
2024-04-14T04:44:16.033Z,86.67
2024-04-14T04:46:42.623Z,87.09
2024-04-14T04:49:09.226Z,87.15
2024-04-14T04:51:35.828Z,88.29
2024-04-14T04:54:02.403Z,89.04
2024-04-14T04:56:28.978Z,89.67
2024-04-14T04:58:55.556Z,89.92
2024-04-14T05:01:22.291Z,90.21
2024-04-14T05:03:49.041Z,90.98
2024-04-14T05:06:16.032Z,90.46
2024-04-14T05:08:42.618Z,90.57
2024-04-14T05:11:09.267Z,91.03
2024-04-14T05:13:35.941Z,91.53
2024-04-14T05:16:05.274Z,91.81
2024-04-14T05:18:32.193Z,92.07
2024-04-14T05:20:58.835Z,91.94
2024-04-14T05:23:25.416Z,91.67
2024-04-14T05:25:52.221Z,92.14
2024-04-14T05:28:18.806Z,92.62
2024-04-14T05:30:47.194Z,92.50
2024-04-14T05:33:13.787Z,92.77
2024-04-14T05:35:40.350Z,93.54
2024-04-14T05:38:06.894Z,92.99
2024-04-14T05:40:33.505Z,92.59
2024-04-14T05:43:00.131Z,92.34
2024-04-14T05:45:27.633Z,92.79
2024-04-14T05:47:56.712Z,92.36
2024-04-14T05:50:23.560Z,92.21
2024-04-14T05:52:50.373Z,92.99
2024-04-14T05:55:16.976Z,93.53
2024-04-14T05:57:43.593Z,92.73
2024-04-14T06:00:10.426Z,93.30
2024-04-14T06:02:38.451Z,93.40
2024-04-14T06:05:05.953Z,93.29
2024-04-14T06:07:35.957Z,92.82
2024-04-14T06:10:03.488Z,93.54
2024-04-14T06:12:30.149Z,93.23
2024-04-14T06:14:57.241Z,93.71
2024-04-14T06:17:23.903Z,93.06
2024-04-14T06:19:50.438Z,92.89
2024-04-14T06:22:17.219Z,92.77
2024-04-14T06:24:43.853Z,93.10
2024-04-14T06:27:10.442Z,92.16
2024-04-14T06:29:36.987Z,91.99
2024-04-14T06:32:03.653Z,92.00
2024-04-14T06:34:30.353Z,91.98
2024-04-14T06:36:57.383Z,92.63
2024-04-14T06:39:24.066Z,93.12
2024-04-14T06:41:50.614Z,93.83
2024-04-14T06:44:17.167Z,93.59
2024-04-14T06:46:45.103Z,92.96
2024-04-14T06:49:11.651Z,93.20
2024-04-14T06:51:38.354Z,94.15
2024-04-14T06:54:07.636Z,94.36
2024-04-14T06:56:36.460Z,93.55
2024-04-14T06:59:03.031Z,94.37
2024-04-14T07:01:29.796Z,93.95
2024-04-14T07:03:56.485Z,93.48
2024-04-14T07:06:23.071Z,93.34
2024-04-14T07:08:49.647Z,92.83
2024-04-14T07:11:16.302Z,92.50
2024-04-14T07:13:42.898Z,92.00
2024-04-14T07:16:10.139Z,91.96
2024-04-14T07:18:36.778Z,91.36
2024-04-14T07:21:04.242Z,90.80
2024-04-14T07:23:33.039Z,91.13
2024-04-14T07:25:59.611Z,90.03
2024-04-14T07:28:26.160Z,89.79
2024-04-14T07:30:53.248Z,88.63
2024-04-14T07:33:19.965Z,88.82
2024-04-14T07:35:46.781Z,89.46
2024-04-14T07:38:13.976Z,87.92
2024-04-14T07:40:42.005Z,86.92
2024-04-14T07:43:09.072Z,87.03
2024-04-14T07:45:36.195Z,86.96
2024-04-14T07:48:03.108Z,86.84
2024-04-14T07:50:29.741Z,87.43
2024-04-14T07:52:56.288Z,86.10
2024-04-14T07:55:22.909Z,87.55
2024-04-14T07:57:49.520Z,87.42
2024-04-14T08:00:16.305Z,87.24
2024-04-14T08:02:44.026Z,86.76
2024-04-14T08:05:11.029Z,85.32
2024-04-14T08:07:37.752Z,84.20
2024-04-14T08:10:04.678Z,83.93
2024-04-14T08:12:31.375Z,82.76
2024-04-14T08:14:57.953Z,82.48
2024-04-14T08:17:24.520Z,82.99
2024-04-14T08:19:51.073Z,83.27
2024-04-14T08:22:17.667Z,84.34
2024-04-14T08:24:44.311Z,82.97
2024-04-14T08:27:10.928Z,82.98
2024-04-14T08:29:38.859Z,82.92
2024-04-14T08:32:05.882Z,82.74
2024-04-14T08:34:32.717Z,82.26
2024-04-14T08:36:59.515Z,82.54
2024-04-14T08:39:26.184Z,82.20
2024-04-14T08:41:53.933Z,82.06
2024-04-14T08:44:20.512Z,81.33
2024-04-14T08:46:47.965Z,81.19
2024-04-14T08:49:14.861Z,81.20
2024-04-14T08:51:42.149Z,81.66
2024-04-14T08:54:08.770Z,80.03
2024-04-14T08:56:35.731Z,79.96
2024-04-14T08:59:06.862Z,80.08
2024-04-14T09:01:35.211Z,80.97
2024-04-14T09:04:06.451Z,81.44
2024-04-14T09:06:34.067Z,82.30
2024-04-14T09:09:02.084Z,81.11
2024-04-14T09:11:28.675Z,80.81
2024-04-14T09:13:55.237Z,79.32
2024-04-14T09:16:21.941Z,77.65
2024-04-14T09:18:48.566Z,76.20
2024-04-14T09:21:15.182Z,75.71
2024-04-14T09:23:41.744Z,73.58
2024-04-14T09:26:08.324Z,71.96
2024-04-14T09:28:34.887Z,70.48
2024-04-14T09:31:01.794Z,70.50
2024-04-14T09:33:28.531Z,70.67
2024-04-14T09:35:55.204Z,69.43
2024-04-14T09:38:22.622Z,70.02
2024-04-14T09:40:50.083Z,68.71
2024-04-14T09:43:19.779Z,66.81
2024-04-14T09:45:47.306Z,66.01
2024-04-14T09:48:14.985Z,66.07
2024-04-14T09:50:43.577Z,65.38
2024-04-14T09:53:11.262Z,65.03
2024-04-14T09:55:40.874Z,65.48
2024-04-14T09:58:07.741Z,65.46
2024-04-14T10:00:34.868Z,65.31
2024-04-14T10:03:05.297Z,67.19
2024-04-14T10:05:32.884Z,67.06
2024-04-14T10:07:59.428Z,67.47
2024-04-14T10:10:26.196Z,66.46
2024-04-14T10:12:53.737Z,66.33
2024-04-14T10:15:25.258Z,65.94
2024-04-14T10:18:08.915Z,64.08
2024-04-14T10:20:44.082Z,64.45
2024-04-14T10:23:20.994Z,64.61
2024-04-14T10:25:49.041Z,65.73
2024-04-14T10:28:22.200Z,63.78
2024-04-14T10:31:00.421Z,63.16
2024-04-14T10:33:27.143Z,62.94
2024-04-14T10:36:07.095Z,62.00
2024-04-14T10:38:35.536Z,62.49
2024-04-14T10:41:02.561Z,62.64
2024-04-14T10:43:29.205Z,62.41
2024-04-14T10:46:00.532Z,62.79
2024-04-14T10:48:27.181Z,62.28
2024-04-14T10:50:53.739Z,62.12
2024-04-14T10:53:20.282Z,62.44
2024-04-14T10:55:46.827Z,60.81
2024-04-14T10:58:13.416Z,59.35
2024-04-14T11:00:40.877Z,58.87
2024-04-14T11:03:07.636Z,58.68
2024-04-14T11:05:35.467Z,59.58
2024-04-14T11:08:02.638Z,59.35
2024-04-14T11:10:29.371Z,60.15
2024-04-14T11:12:56.123Z,60.66
2024-04-14T11:15:22.755Z,60.08
2024-04-14T11:17:49.360Z,60.98
2024-04-14T11:20:16.585Z,60.42
2024-04-14T11:22:43.651Z,60.53
2024-04-14T11:25:10.309Z,60.12
2024-04-14T11:27:37.024Z,60.96
2024-04-14T11:30:04.823Z,60.34
2024-04-14T11:32:37.646Z,60.74
2024-04-14T11:35:06.939Z,61.70
2024-04-14T11:37:36.291Z,62.32
2024-04-14T11:40:08.050Z,62.31
2024-04-14T11:42:36.936Z,62.38
2024-04-14T11:45:03.865Z,62.22
2024-04-14T11:47:30.948Z,61.70
2024-04-14T11:49:57.554Z,61.68
2024-04-14T11:52:24.123Z,60.88
2024-04-14T11:54:50.673Z,60.12
2024-04-14T11:57:17.492Z,59.72
2024-04-14T11:59:44.096Z,59.39
2024-04-14T12:02:10.952Z,59.39
2024-04-14T12:04:37.635Z,58.20
2024-04-14T12:07:04.698Z,57.84
2024-04-14T12:09:31.334Z,57.72
2024-04-14T12:11:57.987Z,57.38
2024-04-14T12:14:24.547Z,57.88
2024-04-14T12:16:51.265Z,58.00
2024-04-14T12:19:17.869Z,58.14
2024-04-14T12:21:44.490Z,57.37
2024-04-14T12:24:11.946Z,56.91
2024-04-14T12:26:38.575Z,56.79
2024-04-14T12:29:05.136Z,55.98
2024-04-14T12:31:31.750Z,54.97
2024-04-14T12:33:58.506Z,54.74
2024-04-14T12:36:25.129Z,54.21
2024-04-14T12:38:51.708Z,54.54
2024-04-14T12:41:19.185Z,53.80
2024-04-14T12:43:45.807Z,52.33
2024-04-14T12:46:12.488Z,52.36
2024-04-14T12:48:43.182Z,51.71
2024-04-14T12:51:09.885Z,50.26
2024-04-14T12:53:40.133Z,49.50
2024-04-14T12:56:06.890Z,48.88
2024-04-14T12:58:33.502Z,48.83
2024-04-14T13:01:00.984Z,49.31
2024-04-14T13:03:28.997Z,50.57
2024-04-14T13:05:56.794Z,50.70
2024-04-14T13:08:25.190Z,50.66
2024-04-14T13:10:51.871Z,50.22
2024-04-14T13:13:18.491Z,50.08
2024-04-14T13:15:47.168Z,49.44
2024-04-14T13:18:13.770Z,49.09
2024-04-14T13:20:40.484Z,48.39
2024-04-14T13:23:07.112Z,47.69
2024-04-14T13:25:33.654Z,47.42
2024-04-14T13:28:00.261Z,45.99
2024-04-14T13:30:28.105Z,46.33
2024-04-14T13:32:54.870Z,45.29
2024-04-14T13:35:21.568Z,45.86
2024-04-14T13:37:48.139Z,45.65
2024-04-14T13:40:14.922Z,44.95
2024-04-14T13:42:41.587Z,44.51
2024-04-14T13:45:08.283Z,44.78
2024-04-14T13:47:34.834Z,44.19
2024-04-14T13:50:01.402Z,43.87
2024-04-14T13:52:31.983Z,42.99
2024-04-14T13:55:00.079Z,42.31
2024-04-14T13:57:27.617Z,42.33
2024-04-14T13:59:54.237Z,41.45
2024-04-14T14:02:20.867Z,41.20
2024-04-14T14:04:47.805Z,41.68
2024-04-14T14:07:14.466Z,42.39
2024-04-14T14:09:41.228Z,42.89
2024-04-14T14:12:08.108Z,42.99
2024-04-14T14:14:35.053Z,41.97
2024-04-14T14:17:01.641Z,42.57
2024-04-14T14:19:29.132Z,42.38
2024-04-14T14:21:55.953Z,42.90
2024-04-14T14:24:22.585Z,42.72
2024-04-14T14:26:49.142Z,41.27
2024-04-14T14:29:15.720Z,40.28
2024-04-14T14:31:42.297Z,39.88
2024-04-14T14:34:27.669Z,40.72
2024-04-14T14:36:54.387Z,41.41
2024-04-14T14:39:20.973Z,42.14
2024-04-14T14:41:47.537Z,42.80
2024-04-14T14:44:14.099Z,43.02
2024-04-14T14:46:40.649Z,44.02
2024-04-14T14:49:07.342Z,45.09
2024-04-14T14:51:34.060Z,45.46
2024-04-14T14:54:01.716Z,44.28
2024-04-14T14:56:28.285Z,44.32
2024-04-14T14:58:54.832Z,44.64
2024-04-14T15:01:21.497Z,43.77
2024-04-14T15:03:48.580Z,43.68
2024-04-14T15:06:15.233Z,44.59
2024-04-14T15:08:41.785Z,45.23
2024-04-14T15:11:16.600Z,46.05
2024-04-14T15:13:43.257Z,46.93
2024-04-14T15:16:10.017Z,46.66
2024-04-14T15:18:36.600Z,45.76
2024-04-14T15:21:03.814Z,44.67
2024-04-14T15:23:32.956Z,45.79
2024-04-14T15:26:01.171Z,46.48
2024-04-14T15:28:30.582Z,47.01
2024-04-14T15:30:58.219Z,47.04
2024-04-14T15:33:25.002Z,46.99
2024-04-14T15:35:51.555Z,47.15
2024-04-14T15:38:18.125Z,47.07
2024-04-14T15:40:49.113Z,48.03
2024-04-14T15:43:15.737Z,48.31
2024-04-14T15:45:42.412Z,47.13
2024-04-14T15:48:11.631Z,48.04
2024-04-14T15:50:38.402Z,48.02
2024-04-14T15:53:06.978Z,47.39
2024-04-14T15:55:40.167Z,46.17
2024-04-14T15:58:07.391Z,45.60
2024-04-14T16:00:34.229Z,45.87
2024-04-14T16:03:00.960Z,46.05
2024-04-14T16:05:29.154Z,45.87
2024-04-14T16:07:58.902Z,46.78
2024-04-14T16:10:28.537Z,47.65
2024-04-14T16:12:55.290Z,47.72
2024-04-14T16:15:21.857Z,48.45
2024-04-14T16:17:48.526Z,47.84
2024-04-14T16:20:15.238Z,48.12
2024-04-14T16:22:41.793Z,48.18
2024-04-14T16:25:08.496Z,48.93
2024-04-14T16:27:35.145Z,48.50
2024-04-14T16:30:01.719Z,48.14
2024-04-14T16:32:28.422Z,48.62
2024-04-14T16:34:55.064Z,48.89
2024-04-14T16:37:21.709Z,49.63
2024-04-14T16:39:48.396Z,49.65
2024-04-14T16:42:14.971Z,49.26
2024-04-14T16:44:41.613Z,48.63
2024-04-14T16:47:08.228Z,48.19
2024-04-14T16:49:34.940Z,47.99
2024-04-14T16:52:01.958Z,48.10
2024-04-14T16:54:28.661Z,47.39
2024-04-14T16:56:55.351Z,47.17
2024-04-14T16:59:21.920Z,48.00
2024-04-14T17:01:48.591Z,47.55
2024-04-14T17:04:15.410Z,47.55
2024-04-14T17:06:42.121Z,47.84
2024-04-14T17:09:09.370Z,47.55
2024-04-14T17:11:36.539Z,47.07
2024-04-14T17:14:03.102Z,46.70
2024-04-14T17:16:29.732Z,46.58
2024-04-14T17:18:57.095Z,46.82
2024-04-14T17:21:23.705Z,46.61
2024-04-14T17:23:50.301Z,46.56
2024-04-14T17:26:16.860Z,47.05
2024-04-14T17:28:43.417Z,46.92
2024-04-14T17:31:10.048Z,46.67
2024-04-14T17:33:36.740Z,46.83
2024-04-14T17:36:03.532Z,46.65
2024-04-14T17:38:30.098Z,46.58
2024-04-14T17:40:56.675Z,46.75
2024-04-14T17:43:23.250Z,46.97
2024-04-14T17:45:49.884Z,47.52
2024-04-14T17:48:16.472Z,47.38
2024-04-14T17:50:43.062Z,47.69
2024-04-14T17:53:09.627Z,47.93
2024-04-14T17:55:36.243Z,47.55
2024-04-14T17:58:02.848Z,47.54
2024-04-14T18:00:29.516Z,48.36
2024-04-14T18:02:56.121Z,48.20
2024-04-14T18:05:22.674Z,48.66
2024-04-14T18:07:49.214Z,49.25
2024-04-14T18:10:15.946Z,50.20
2024-04-14T18:12:45.258Z,49.77
2024-04-14T18:15:11.815Z,50.83
2024-04-14T18:17:38.449Z,49.58
2024-04-14T18:20:05.295Z,49.14
2024-04-14T18:22:32.198Z,49.70
2024-04-14T18:24:58.792Z,49.54
2024-04-14T18:27:25.959Z,49.54
2024-04-14T18:29:52.539Z,49.40
2024-04-14T18:32:19.081Z,49.74
2024-04-14T18:34:45.721Z,49.85
2024-04-14T18:37:12.372Z,50.65
2024-04-14T18:39:38.956Z,50.49
2024-04-14T18:42:05.901Z,51.03
2024-04-14T18:44:32.441Z,50.71
2024-04-14T18:47:00.641Z,52.16
2024-04-14T18:49:27.279Z,52.41
2024-04-14T18:51:53.859Z,53.32
2024-04-14T18:54:20.457Z,53.48
2024-04-14T18:56:47.020Z,54.27
2024-04-14T18:59:13.603Z,53.68
2024-04-14T19:01:40.385Z,53.09
2024-04-14T19:04:07.210Z,53.42
2024-04-14T19:06:33.795Z,53.12
2024-04-14T19:09:00.497Z,52.49
2024-04-14T19:11:27.101Z,52.38
2024-04-14T19:13:53.690Z,53.39
2024-04-14T19:16:21.288Z,53.25
2024-04-14T19:18:48.148Z,53.70
2024-04-14T19:21:14.755Z,54.45
2024-04-14T19:23:41.314Z,54.77
2024-04-14T19:26:13.074Z,55.99
2024-04-14T19:28:39.749Z,56.83
2024-04-14T19:31:06.826Z,57.27
2024-04-14T19:33:33.482Z,58.03
2024-04-14T19:36:00.260Z,58.90
2024-04-14T19:38:27.876Z,59.35
2024-04-14T19:40:55.278Z,58.86
2024-04-14T19:43:22.255Z,59.55
2024-04-14T19:45:49.215Z,60.10
2024-04-14T19:48:16.049Z,60.04
2024-04-14T19:50:42.666Z,60.07
2024-04-14T19:53:09.241Z,59.99
2024-04-14T19:55:35.809Z,59.90
2024-04-14T19:58:02.573Z,60.63
2024-04-14T20:00:29.231Z,62.34
2024-04-14T20:02:55.992Z,63.62
2024-04-14T20:05:22.613Z,63.50
2024-04-14T20:07:49.167Z,64.48
2024-04-14T20:10:15.761Z,64.53
2024-04-14T20:12:42.623Z,65.52
2024-04-14T20:15:09.191Z,65.83
2024-04-14T20:17:35.812Z,68.68
2024-04-14T20:20:02.463Z,70.39
2024-04-14T20:22:29.033Z,69.76
2024-04-14T20:24:55.671Z,68.97
2024-04-14T20:27:22.247Z,69.50
2024-04-14T20:29:48.853Z,69.25
2024-04-14T20:32:15.493Z,66.94
2024-04-14T20:34:42.553Z,64.68
2024-04-14T20:37:09.238Z,66.41
2024-04-14T20:39:35.978Z,68.60
2024-04-14T20:42:02.550Z,69.20
2024-04-14T20:44:29.554Z,68.51
2024-04-14T20:46:56.154Z,67.28
2024-04-14T20:49:22.800Z,65.99
2024-04-14T20:51:49.469Z,66.02
2024-04-14T20:54:16.068Z,64.94
2024-04-14T20:56:42.694Z,64.61
2024-04-14T20:59:09.265Z,63.97
2024-04-14T21:01:35.899Z,64.75
2024-04-14T21:04:02.568Z,65.77
2024-04-14T21:06:29.215Z,65.93
2024-04-14T21:08:55.785Z,65.85
2024-04-14T21:11:22.414Z,67.11
2024-04-14T21:13:49.031Z,68.19
2024-04-14T21:16:16.332Z,68.67
2024-04-14T21:18:43.167Z,68.55
2024-04-14T21:21:09.976Z,68.57
2024-04-14T21:23:36.552Z,68.11
2024-04-14T21:26:04.696Z,68.67
2024-04-14T21:28:32.951Z,69.37
2024-04-14T21:30:59.550Z,70.93
2024-04-14T21:33:26.253Z,74.58
2024-04-14T21:35:53.037Z,71.33
2024-04-14T21:38:19.656Z,70.04
2024-04-14T21:40:50.130Z,69.76
2024-04-14T21:43:17.077Z,71.30
2024-04-14T21:45:44.052Z,72.30
2024-04-14T21:48:10.867Z,75.87
2024-04-14T21:50:37.679Z,75.70
2024-04-14T21:53:04.334Z,75.01
2024-04-14T21:55:30.886Z,74.10
2024-04-14T21:57:57.543Z,75.23
2024-04-14T22:00:24.174Z,75.53
2024-04-14T22:02:52.387Z,75.88
2024-04-14T22:05:19.008Z,78.50
2024-04-14T22:07:45.591Z,78.30
2024-04-14T22:10:12.678Z,78.04
2024-04-14T22:12:39.453Z,79.98
2024-04-14T22:15:06.321Z,81.92
2024-04-14T22:17:32.842Z,81.10
2024-04-14T22:19:59.455Z,81.97
2024-04-14T22:22:25.977Z,83.01
2024-04-14T22:24:52.658Z,85.57
2024-04-14T22:27:19.204Z,88.82
2024-04-14T22:29:45.766Z,91.62
2024-04-14T22:32:12.330Z,90.93
2024-04-14T22:34:38.948Z,91.82
2024-04-14T22:37:05.615Z,92.61
2024-04-14T22:39:32.280Z,92.51
2024-04-14T22:41:58.812Z,93.25
2024-04-14T22:44:25.445Z,94.65
2024-04-14T22:46:52.012Z,95.15
2024-04-14T22:49:18.635Z,94.66
2024-04-14T22:51:45.260Z,94.61
2024-04-14T22:54:11.800Z,96.05
2024-04-14T22:56:38.378Z,97.51
2024-04-14T22:59:04.910Z,98.17
2024-04-14T23:01:31.574Z,99.49
2024-04-14T23:03:58.310Z,99.01
2024-04-14T23:06:24.892Z,100.00
2024-04-14T23:08:51.440Z,100.00
2024-04-14T23:11:18.619Z,100.00
2024-04-14T23:13:45.239Z,100.00
2024-04-14T23:16:11.863Z,100.00
2024-04-14T23:18:38.607Z,100.00
2024-04-14T23:21:05.279Z,100.00
2024-04-14T23:23:31.870Z,100.00
2024-04-14T23:25:59.211Z,100.00
2024-04-14T23:28:25.732Z,100.00
2024-04-14T23:30:52.483Z,100.00
2024-04-14T23:33:19.227Z,100.00
2024-04-14T23:35:45.965Z,100.00
2024-04-14T23:38:12.510Z,100.00
2024-04-14T23:40:39.373Z,100.00
2024-04-14T23:43:06.085Z,100.00
2024-04-14T23:45:32.739Z,100.00
2024-04-14T23:47:59.366Z,100.00
2024-04-14T23:50:25.991Z,100.00
2024-04-14T23:52:52.543Z,100.00
2024-04-14T23:55:20.943Z,100.00
2024-04-14T23:57:47.544Z,100.00
